CCR weather

Buchanan Field
Concord, California, United States

Public forecast

Using degrees Fahrenheit for public forecast. Weather courtesy of forecast.io.

METAR (pilot weather report)

Retrieved 2019/07/19 12:36 UTC (0 seconds ago):

KCCR 191236Z AUTO 22012KT 10SM SCT011 17/12 A2986 RMK AO2 T01670122

TAF (pilot weather forecast)

Forecast is more than 12 hours old.

Retrieved 2016/02/08 00:21 UTC (3 years ago):

TAF KCCR 082320Z 0900/0924 06006KT P6SM SKC FM090600 VRB03KT P6SM SKC FM091800 04009KT P6SM SKC